Terminal Aerodrome Forecast
Issued by NWS

Home | Current Version | Previous Version | Text Only | Print | Product List | Glossary On
Versions: 1 2 3 4 5 6 7 8 9 10 11 12 13 14 15 16 17 18
000
FTUS45 KFGZ 281100
TAFSEZ
TAF
KSEZ 281120Z 2812/2912 07010G16KT P6SM FEW090
     FM281500 VRB02KT P6SM SCT090
     FM281800 VRB06KT P6SM BKN090
     FM290300 05007KT P6SM SKC=

USA.gov is the U.S. government's official web portal to all federal, state and local government web resources and services.